sensor_id;sensor_type;location;lat;lon;timestamp;pressure;altitude;pressure_sealevel;temperature;humidity
12203;BME280;6164;42.178;24.622;2023-02-21T00:01:08;99961.78;;;8.23;52.94
12203;BME280;6164;42.178;24.622;2023-02-21T00:03:52;99951.28;;;8.04;53.20
12203;BME280;6164;42.178;24.622;2023-02-21T00:06:37;99941.09;;;7.91;53.99
12203;BME280;6164;42.178;24.622;2023-02-21T00:09:21;99940.66;;;7.96;53.68
12203;BME280;6164;42.178;24.622;2023-02-21T00:12:05;99948.38;;;8.07;52.84
12203;BME280;6164;42.178;24.622;2023-02-21T00:14:49;99956.28;;;8.07;52.64
12203;BME280;6164;42.178;24.622;2023-02-21T00:17:32;99956.72;;;7.93;53.01
12203;BME280;6164;42.178;24.622;2023-02-21T00:20:17;99947.19;;;7.92;52.97
12203;BME280;6164;42.178;24.622;2023-02-21T00:23:02;99947.84;;;7.94;53.28
12203;BME280;6164;42.178;24.622;2023-02-21T00:25:46;99955.47;;;7.97;52.73
12203;BME280;6164;42.178;24.622;2023-02-21T00:28:31;99965.41;;;8.03;52.31
12203;BME280;6164;42.178;24.622;2023-02-21T00:31:16;99946.06;;;7.94;52.54
12203;BME280;6164;42.178;24.622;2023-02-21T00:34:00;99938.03;;;7.96;52.99
12203;BME280;6164;42.178;24.622;2023-02-21T00:36:44;99938.97;;;8.04;52.63
12203;BME280;6164;42.178;24.622;2023-02-21T00:39:29;99939.75;;;8.15;52.41
12203;BME280;6164;42.178;24.622;2023-02-21T00:42:13;99947.34;;;8.27;51.96
12203;BME280;6164;42.178;24.622;2023-02-21T00:44:57;99970.13;;;8.46;51.44
12203;BME280;6164;42.178;24.622;2023-02-21T00:47:41;99974.22;;;8.58;50.92
12203;BME280;6164;42.178;24.622;2023-02-21T00:50:25;99986.09;;;8.62;50.61
12203;BME280;6164;42.178;24.622;2023-02-21T00:53:08;99990.94;;;8.66;50.68
12203;BME280;6164;42.178;24.622;2023-02-21T00:55:54;100000.72;;;8.74;50.46
12203;BME280;6164;42.178;24.622;2023-02-21T00:58:38;99995.22;;;8.67;50.47
12203;BME280;6164;42.178;24.622;2023-02-21T01:01:22;99996.97;;;8.76;50.54
12203;BME280;6164;42.178;24.622;2023-02-21T01:04:05;99999.50;;;8.68;50.56
12203;BME280;6164;42.178;24.622;2023-02-21T01:06:49;99986.63;;;8.65;50.61
12203;BME280;6164;42.178;24.622;2023-02-21T01:09:33;99975.72;;;8.60;50.83
12203;BME280;6164;42.178;24.622;2023-02-21T01:12:18;99970.16;;;8.63;50.70
12203;BME280;6164;42.178;24.622;2023-02-21T01:15:03;99978.03;;;8.63;50.14
12203;BME280;6164;42.178;24.622;2023-02-21T01:17:47;99977.28;;;8.53;50.59
12203;BME280;6164;42.178;24.622;2023-02-21T01:20:31;99962.97;;;8.29;50.87
12203;BME280;6164;42.178;24.622;2023-02-21T01:23:14;99952.13;;;8.04;51.35
12203;BME280;6164;42.178;24.622;2023-02-21T01:25:58;99919.66;;;7.86;52.16
12203;BME280;6164;42.178;24.622;2023-02-21T01:28:44;99898.03;;;7.92;52.15
12203;BME280;6164;42.178;24.622;2023-02-21T01:31:30;99905.19;;;8.10;51.62
12203;BME280;6164;42.178;24.622;2023-02-21T01:34:14;99904.03;;;8.22;51.35
12203;BME280;6164;42.178;24.622;2023-02-21T01:36:57;99911.59;;;8.34;51.13
12203;BME280;6164;42.178;24.622;2023-02-21T01:39:41;99906.34;;;8.34;50.84
12203;BME280;6164;42.178;24.622;2023-02-21T01:42:25;99927.94;;;8.38;50.70
12203;BME280;6164;42.178;24.622;2023-02-21T01:48:13;99938.94;;;8.51;49.91
12203;BME280;6164;42.178;24.622;2023-02-21T01:50:58;99948.38;;;8.44;50.39
12203;BME280;6164;42.178;24.622;2023-02-21T01:53:42;99935.53;;;8.41;50.16
12203;BME280;6164;42.178;24.622;2023-02-21T01:56:27;99928.63;;;8.40;50.27
12203;BME280;6164;42.178;24.622;2023-02-21T01:59:12;99927.53;;;8.33;50.91
12203;BME280;6164;42.178;24.622;2023-02-21T02:01:57;99928.41;;;8.24;50.60
12203;BME280;6164;42.178;24.622;2023-02-21T02:04:45;99920.75;;;8.21;50.91
12203;BME280;6164;42.178;24.622;2023-02-21T02:07:29;99914.00;;;8.18;50.54
12203;BME280;6164;42.178;24.622;2023-02-21T02:10:13;99915.50;;;8.21;50.28
12203;BME280;6164;42.178;24.622;2023-02-21T02:13:08;99919.97;;;8.20;49.94
12203;BME280;6164;42.178;24.622;2023-02-21T02:15:42;99919.94;;;8.30;50.03
12203;BME280;6164;42.178;24.622;2023-02-21T02:18:15;99923.81;;;8.35;50.07
12203;BME280;6164;42.178;24.622;2023-02-21T02:20:55;99925.72;;;8.60;49.47
12203;BME280;6164;42.178;24.622;2023-02-21T02:23:35;99939.06;;;8.76;49.04
12203;BME280;6164;42.178;24.622;2023-02-21T02:26:27;99945.53;;;8.82;48.71
12203;BME280;6164;42.178;24.622;2023-02-21T02:29:04;99948.16;;;8.82;48.87
12203;BME280;6164;42.178;24.622;2023-02-21T02:31:38;99956.22;;;8.98;48.11
12203;BME280;6164;42.178;24.622;2023-02-21T02:34:20;99969.78;;;9.03;48.09
12203;BME280;6164;42.178;24.622;2023-02-21T02:36:49;99967.97;;;9.03;48.34
12203;BME280;6164;42.178;24.622;2023-02-21T02:39:19;99953.16;;;9.02;49.21
12203;BME280;6164;42.178;24.622;2023-02-21T02:41:48;99943.91;;;8.98;49.38
12203;BME280;6164;42.178;24.622;2023-02-21T02:44:18;99933.81;;;8.94;49.69
12203;BME280;6164;42.178;24.622;2023-02-21T02:46:47;99920.56;;;8.86;49.92
12203;BME280;6164;42.178;24.622;2023-02-21T02:49:15;99908.13;;;8.78;50.57
12203;BME280;6164;42.178;24.622;2023-02-21T02:51:44;99886.03;;;8.71;50.92
12203;BME280;6164;42.178;24.622;2023-02-21T02:54:11;99871.81;;;8.64;50.64
12203;BME280;6164;42.178;24.622;2023-02-21T02:56:37;99870.38;;;8.52;50.77
12203;BME280;6164;42.178;24.622;2023-02-21T02:59:05;99850.38;;;8.42;51.23
12203;BME280;6164;42.178;24.622;2023-02-21T03:01:39;99862.47;;;8.52;50.58
12203;BME280;6164;42.178;24.622;2023-02-21T03:04:18;99877.38;;;8.61;50.06
12203;BME280;6164;42.178;24.622;2023-02-21T03:06:53;99874.38;;;8.56;49.89
12203;BME280;6164;42.178;24.622;2023-02-21T03:09:23;99863.16;;;8.37;51.04
12203;BME280;6164;42.178;24.622;2023-02-21T03:11:54;99857.41;;;8.24;50.94
12203;BME280;6164;42.178;24.622;2023-02-21T03:14:23;99847.88;;;8.13;51.32
12203;BME280;6164;42.178;24.622;2023-02-21T03:16:53;99850.66;;;8.12;51.02
12203;BME280;6164;42.178;24.622;2023-02-21T03:19:23;99855.03;;;8.21;50.72
12203;BME280;6164;42.178;24.622;2023-02-21T03:21:53;99863.72;;;8.31;50.31
12203;BME280;6164;42.178;24.622;2023-02-21T03:24:21;99880.44;;;8.39;50.03
12203;BME280;6164;42.178;24.622;2023-02-21T03:26:50;99888.72;;;8.44;49.87
12203;BME280;6164;42.178;24.622;2023-02-21T03:29:17;99883.81;;;8.49;49.53
12203;BME280;6164;42.178;24.622;2023-02-21T03:31:46;99895.59;;;8.45;49.80
12203;BME280;6164;42.178;24.622;2023-02-21T03:34:13;99886.31;;;8.51;49.88
12203;BME280;6164;42.178;24.622;2023-02-21T03:36:40;99895.44;;;8.56;49.73
12203;BME280;6164;42.178;24.622;2023-02-21T03:39:09;99912.25;;;8.63;49.91
12203;BME280;6164;42.178;24.622;2023-02-21T03:41:35;99904.66;;;8.60;49.91
12203;BME280;6164;42.178;24.622;2023-02-21T03:44:01;99904.19;;;8.47;50.81
12203;BME280;6164;42.178;24.622;2023-02-21T03:46:28;99883.50;;;8.35;50.61
12203;BME280;6164;42.178;24.622;2023-02-21T03:48:54;99882.97;;;8.31;51.03
12203;BME280;6164;42.178;24.622;2023-02-21T03:51:21;99881.97;;;8.32;50.88
12203;BME280;6164;42.178;24.622;2023-02-21T03:53:48;99884.34;;;8.35;50.42
12203;BME280;6164;42.178;24.622;2023-02-21T03:56:16;99892.31;;;8.43;50.47
12203;BME280;6164;42.178;24.622;2023-02-21T03:58:42;99897.38;;;8.54;49.91
12203;BME280;6164;42.178;24.622;2023-02-21T04:01:09;99909.19;;;8.68;49.23
12203;BME280;6164;42.178;24.622;2023-02-21T04:03:35;99923.94;;;8.78;49.13
12203;BME280;6164;42.178;24.622;2023-02-21T04:06:01;99923.34;;;8.84;49.38
12203;BME280;6164;42.178;24.622;2023-02-21T04:08:29;99918.63;;;8.88;49.37
12203;BME280;6164;42.178;24.622;2023-02-21T04:10:55;99918.84;;;8.94;49.05
12203;BME280;6164;42.178;24.622;2023-02-21T04:13:23;99914.94;;;8.98;49.16
12203;BME280;6164;42.178;24.622;2023-02-21T04:15:50;99916.94;;;9.04;49.21
12203;BME280;6164;42.178;24.622;2023-02-21T04:18:17;99913.06;;;9.08;49.31
12203;BME280;6164;42.178;24.622;2023-02-21T04:20:43;99909.00;;;9.14;49.49
12203;BME280;6164;42.178;24.622;2023-02-21T04:23:11;99925.31;;;9.17;48.92
12203;BME280;6164;42.178;24.622;2023-02-21T04:25:39;99921.56;;;9.20;49.01
12203;BME280;6164;42.178;24.622;2023-02-21T04:28:06;99934.88;;;9.18;48.71
12203;BME280;6164;42.178;24.622;2023-02-21T04:30:34;99936.34;;;9.21;49.05
12203;BME280;6164;42.178;24.622;2023-02-21T04:33:01;99944.94;;;9.23;48.88
12203;BME280;6164;42.178;24.622;2023-02-21T04:35:28;99954.94;;;9.19;48.64
12203;BME280;6164;42.178;24.622;2023-02-21T04:37:54;99954.72;;;9.13;48.97
12203;BME280;6164;42.178;24.622;2023-02-21T04:40:21;99945.69;;;8.98;49.11
12203;BME280;6164;42.178;24.622;2023-02-21T04:42:47;99939.16;;;8.84;49.11
12203;BME280;6164;42.178;24.622;2023-02-21T04:45:14;99944.56;;;8.83;49.20
12203;BME280;6164;42.178;24.622;2023-02-21T04:47:42;99939.88;;;8.77;49.36
12203;BME280;6164;42.178;24.622;2023-02-21T04:50:08;99930.25;;;8.68;49.48
12203;BME280;6164;42.178;24.622;2023-02-21T04:52:35;99940.78;;;8.68;49.47
12203;BME280;6164;42.178;24.622;2023-02-21T04:55:01;99933.84;;;8.67;49.16
12203;BME280;6164;42.178;24.622;2023-02-21T04:57:28;99941.78;;;8.84;48.91
12203;BME280;6164;42.178;24.622;2023-02-21T04:59:55;99943.13;;;8.88;48.83
12203;BME280;6164;42.178;24.622;2023-02-21T05:02:21;99946.97;;;8.94;48.84
12203;BME280;6164;42.178;24.622;2023-02-21T05:04:49;99943.59;;;8.84;49.21
12203;BME280;6164;42.178;24.622;2023-02-21T05:07:16;99919.13;;;8.74;50.04
12203;BME280;6164;42.178;24.622;2023-02-21T05:09:42;99930.28;;;8.85;48.47
12203;BME280;6164;42.178;24.622;2023-02-21T05:12:09;99948.63;;;8.95;48.16
12203;BME280;6164;42.178;24.622;2023-02-21T05:14:36;99958.34;;;8.94;48.81
12203;BME280;6164;42.178;24.622;2023-02-21T05:17:03;99947.94;;;8.75;49.47
12203;BME280;6164;42.178;24.622;2023-02-21T05:19:30;99940.78;;;8.68;48.96
12203;BME280;6164;42.178;24.622;2023-02-21T05:21:58;99939.88;;;8.77;49.23
12203;BME280;6164;42.178;24.622;2023-02-21T05:24:25;99925.00;;;8.85;49.17
12203;BME280;6164;42.178;24.622;2023-02-21T05:26:52;99934.16;;;8.81;49.34
12203;BME280;6164;42.178;24.622;2023-02-21T05:29:19;99939.44;;;8.81;49.36
12203;BME280;6164;42.178;24.622;2023-02-21T05:31:45;99933.34;;;8.81;49.25
12203;BME280;6164;42.178;24.622;2023-02-21T05:34:12;99943.81;;;8.73;49.68
12203;BME280;6164;42.178;24.622;2023-02-21T05:36:39;99927.41;;;8.79;49.78
12203;BME280;6164;42.178;24.622;2023-02-21T05:39:07;99936.38;;;8.86;49.85
12203;BME280;6164;42.178;24.622;2023-02-21T05:41:33;99938.41;;;8.92;49.19
12203;BME280;6164;42.178;24.622;2023-02-21T05:44:01;99930.88;;;8.97;49.52
12203;BME280;6164;42.178;24.622;2023-02-21T05:46:29;99932.03;;;8.94;49.50
12203;BME280;6164;42.178;24.622;2023-02-21T05:48:56;99933.75;;;9.03;49.68
12203;BME280;6164;42.178;24.622;2023-02-21T05:51:22;99934.88;;;9.01;49.41
12203;BME280;6164;42.178;24.622;2023-02-21T05:53:49;99930.13;;;9.04;49.58
12203;BME280;6164;42.178;24.622;2023-02-21T05:56:20;99935.13;;;9.07;49.80
12203;BME280;6164;42.178;24.622;2023-02-21T05:58:47;99913.88;;;9.09;50.43
12203;BME280;6164;42.178;24.622;2023-02-21T06:01:13;99917.50;;;9.25;50.42
12203;BME280;6164;42.178;24.622;2023-02-21T06:03:40;99912.06;;;9.27;50.54
12203;BME280;6164;42.178;24.622;2023-02-21T06:06:07;99891.53;;;9.30;50.72
12203;BME280;6164;42.178;24.622;2023-02-21T06:08:40;99893.47;;;9.28;50.93
12203;BME280;6164;42.178;24.622;2023-02-21T06:11:07;99894.81;;;9.32;50.92
12203;BME280;6164;42.178;24.622;2023-02-21T06:13:35;99884.56;;;9.47;50.94
12203;BME280;6164;42.178;24.622;2023-02-21T06:16:02;99879.03;;;9.58;50.87
12203;BME280;6164;42.178;24.622;2023-02-21T06:18:28;99877.44;;;9.65;50.77
12203;BME280;6164;42.178;24.622;2023-02-21T06:20:55;99898.47;;;9.83;50.99
12203;BME280;6164;42.178;24.622;2023-02-21T06:23:21;99892.22;;;9.92;50.46
12203;BME280;6164;42.178;24.622;2023-02-21T06:25:48;99892.44;;;9.98;50.32
12203;BME280;6164;42.178;24.622;2023-02-21T06:28:14;99893.06;;;9.92;50.85
12203;BME280;6164;42.178;24.622;2023-02-21T06:30:43;99888.31;;;9.96;50.67
12203;BME280;6164;42.178;24.622;2023-02-21T06:33:10;99882.19;;;9.95;51.12
12203;BME280;6164;42.178;24.622;2023-02-21T06:35:36;99884.22;;;10.01;51.20
12203;BME280;6164;42.178;24.622;2023-02-21T06:38:03;99881.81;;;10.08;51.23
12203;BME280;6164;42.178;24.622;2023-02-21T06:40:29;99875.09;;;10.21;50.77
12203;BME280;6164;42.178;24.622;2023-02-21T06:42:56;99890.84;;;10.39;50.60
12203;BME280;6164;42.178;24.622;2023-02-21T06:45:22;99908.06;;;10.59;49.95
12203;BME280;6164;42.178;24.622;2023-02-21T06:47:50;99887.47;;;10.71;50.90
12203;BME280;6164;42.178;24.622;2023-02-21T06:50:17;99904.47;;;10.76;50.22
12203;BME280;6164;42.178;24.622;2023-02-21T06:52:43;99914.56;;;10.89;49.64
12203;BME280;6164;42.178;24.622;2023-02-21T06:55:10;99926.97;;;10.96;49.76
12203;BME280;6164;42.178;24.622;2023-02-21T06:57:36;99932.25;;;11.04;49.86
12203;BME280;6164;42.178;24.622;2023-02-21T07:00:03;99931.63;;;11.18;49.67
12203;BME280;6164;42.178;24.622;2023-02-21T07:02:30;99957.56;;;11.23;49.40
12203;BME280;6164;42.178;24.622;2023-02-21T07:04:57;99960.38;;;11.29;49.06
12203;BME280;6164;42.178;24.622;2023-02-21T07:07:24;99946.00;;;11.40;49.03
12203;BME280;6164;42.178;24.622;2023-02-21T07:09:50;99957.91;;;11.52;48.85
12203;BME280;6164;42.178;24.622;2023-02-21T07:12:17;99963.00;;;11.61;48.87
12203;BME280;6164;42.178;24.622;2023-02-21T07:14:43;99958.75;;;11.68;48.51
12203;BME280;6164;42.178;24.622;2023-02-21T07:17:10;99971.97;;;11.68;48.33
12203;BME280;6164;42.178;24.622;2023-02-21T07:19:36;99981.22;;;11.80;48.12
12203;BME280;6164;42.178;24.622;2023-02-21T07:22:04;99999.56;;;11.82;47.53
12203;BME280;6164;42.178;24.622;2023-02-21T07:24:31;100014.94;;;11.86;46.65
12203;BME280;6164;42.178;24.622;2023-02-21T07:26:57;100019.59;;;11.93;47.19
12203;BME280;6164;42.178;24.622;2023-02-21T07:29:24;100020.91;;;11.88;47.32
12203;BME280;6164;42.178;24.622;2023-02-21T07:31:50;100010.50;;;11.87;47.53
12203;BME280;6164;42.178;24.622;2023-02-21T07:34:17;100024.38;;;11.97;46.93
12203;BME280;6164;42.178;24.622;2023-02-21T07:36:44;100016.75;;;12.02;47.21
12203;BME280;6164;42.178;24.622;2023-02-21T07:39:12;100025.34;;;11.96;47.62
12203;BME280;6164;42.178;24.622;2023-02-21T07:41:38;100020.06;;;12.12;47.54
12203;BME280;6164;42.178;24.622;2023-02-21T07:44:05;99988.75;;;12.32;48.09
12203;BME280;6164;42.178;24.622;2023-02-21T07:46:32;99990.81;;;12.52;48.13
12203;BME280;6164;42.178;24.622;2023-02-21T07:48:59;99982.63;;;12.78;48.21
12203;BME280;6164;42.178;24.622;2023-02-21T07:51:26;100016.44;;;13.06;46.44
12203;BME280;6164;42.178;24.622;2023-02-21T07:53:52;100032.59;;;13.19;45.76
12203;BME280;6164;42.178;24.622;2023-02-21T07:56:20;100055.31;;;13.22;45.30
12203;BME280;6164;42.178;24.622;2023-02-21T07:58:47;100042.56;;;13.48;46.14
12203;BME280;6164;42.178;24.622;2023-02-21T08:01:14;100057.84;;;13.69;44.94
12203;BME280;6164;42.178;24.622;2023-02-21T08:03:40;100097.00;;;13.89;44.27
12203;BME280;6164;42.178;24.622;2023-02-21T08:06:07;100107.13;;;13.86;43.96
12203;BME280;6164;42.178;24.622;2023-02-21T08:08:35;100105.06;;;13.96;44.25
12203;BME280;6164;42.178;24.622;2023-02-21T08:11:01;100122.78;;;14.03;43.59
12203;BME280;6164;42.178;24.622;2023-02-21T08:13:29;100140.09;;;14.14;43.58
12203;BME280;6164;42.178;24.622;2023-02-21T08:15:56;100151.19;;;14.17;43.00
12203;BME280;6164;42.178;24.622;2023-02-21T08:18:23;100171.25;;;14.28;42.58
12203;BME280;6164;42.178;24.622;2023-02-21T08:20:49;100177.47;;;14.35;42.51
12203;BME280;6164;42.178;24.622;2023-02-21T08:23:16;100171.97;;;14.59;42.21
12203;BME280;6164;42.178;24.622;2023-02-21T08:25:43;100172.03;;;15.03;42.23
12203;BME280;6164;42.178;24.622;2023-02-21T08:28:10;100195.72;;;15.27;40.93
12203;BME280;6164;42.178;24.622;2023-02-21T08:30:38;100218.28;;;15.45;40.37
12203;BME280;6164;42.178;24.622;2023-02-21T08:33:04;100224.34;;;15.54;40.42
12203;BME280;6164;42.178;24.622;2023-02-21T08:35:31;100242.34;;;15.66;40.54
12203;BME280;6164;42.178;24.622;2023-02-21T08:37:57;100243.03;;;15.75;40.39
12203;BME280;6164;42.178;24.622;2023-02-21T08:40:27;100248.63;;;15.80;40.50
12203;BME280;6164;42.178;24.622;2023-02-21T08:42:54;100239.94;;;15.71;40.99
12203;BME280;6164;42.178;24.622;2023-02-21T08:45:21;100229.47;;;15.85;41.04
12203;BME280;6164;42.178;24.622;2023-02-21T08:47:49;100225.44;;;16.10;41.39
12203;BME280;6164;42.178;24.622;2023-02-21T08:50:16;100243.94;;;16.18;40.18
12203;BME280;6164;42.178;24.622;2023-02-21T08:52:44;100248.22;;;16.33;39.96
12203;BME280;6164;42.178;24.622;2023-02-21T08:55:11;100248.00;;;16.49;39.96
12203;BME280;6164;42.178;24.622;2023-02-21T08:57:37;100264.72;;;16.58;39.55
12203;BME280;6164;42.178;24.622;2023-02-21T09:00:04;100261.41;;;16.77;39.59
12203;BME280;6164;42.178;24.622;2023-02-21T09:02:34;100272.25;;;16.75;39.07
12203;BME280;6164;42.178;24.622;2023-02-21T09:05:06;100265.16;;;17.10;39.75
12203;BME280;6164;42.178;24.622;2023-02-21T09:07:32;100288.22;;;17.18;38.80
12203;BME280;6164;42.178;24.622;2023-02-21T09:09:59;100262.53;;;17.44;39.60
12203;BME280;6164;42.178;24.622;2023-02-21T09:12:26;100294.91;;;17.62;38.94
12203;BME280;6164;42.178;24.622;2023-02-21T09:14:52;100308.03;;;17.57;37.79
12203;BME280;6164;42.178;24.622;2023-02-21T09:17:19;100308.09;;;17.70;38.46
12203;BME280;6164;42.178;24.622;2023-02-21T09:19:45;100319.25;;;17.80;37.77
12203;BME280;6164;42.178;24.622;2023-02-21T09:22:13;100330.69;;;18.02;37.75
12203;BME280;6164;42.178;24.622;2023-02-21T09:24:40;100346.16;;;18.13;37.01
12203;BME280;6164;42.178;24.622;2023-02-21T09:27:07;100342.06;;;18.17;37.32
12203;BME280;6164;42.178;24.622;2023-02-21T09:29:34;100360.94;;;18.15;37.24
12203;BME280;6164;42.178;24.622;2023-02-21T09:32:01;100370.84;;;18.21;36.53
12203;BME280;6164;42.178;24.622;2023-02-21T09:34:27;100366.38;;;18.28;36.95
12203;BME280;6164;42.178;24.622;2023-02-21T09:36:54;100378.19;;;18.47;36.72
12203;BME280;6164;42.178;24.622;2023-02-21T09:39:22;100379.28;;;18.66;36.52
12203;BME280;6164;42.178;24.622;2023-02-21T09:41:49;100391.66;;;18.80;35.82
12203;BME280;6164;42.178;24.622;2023-02-21T09:44:21;100403.44;;;18.98;36.00
12203;BME280;6164;42.178;24.622;2023-02-21T09:46:48;100409.00;;;19.03;35.55
12203;BME280;6164;42.178;24.622;2023-02-21T09:49:16;100421.41;;;19.11;35.09
12203;BME280;6164;42.178;24.622;2023-02-21T09:51:47;100437.63;;;19.09;34.87
12203;BME280;6164;42.178;24.622;2023-02-21T09:54:16;100440.31;;;19.09;35.02
12203;BME280;6164;42.178;24.622;2023-02-21T09:56:45;100437.09;;;19.33;35.09
12203;BME280;6164;42.178;24.622;2023-02-21T09:59:12;100450.28;;;19.48;34.48
12203;BME280;6164;42.178;24.622;2023-02-21T10:01:43;100447.41;;;19.56;34.69
12203;BME280;6164;42.178;24.622;2023-02-21T10:04:12;100443.09;;;19.75;33.95
12203;BME280;6164;42.178;24.622;2023-02-21T10:06:42;100485.75;;;19.63;33.75
12203;BME280;6164;42.178;24.622;2023-02-21T10:09:16;100478.75;;;19.69;34.15
12203;BME280;6164;42.178;24.622;2023-02-21T10:11:50;100476.28;;;19.93;33.69
12203;BME280;6164;42.178;24.622;2023-02-21T10:14:22;100496.06;;;19.86;33.39
12203;BME280;6164;42.178;24.622;2023-02-21T10:16:53;100479.97;;;20.05;34.04
12203;BME280;6164;42.178;24.622;2023-02-21T10:19:22;100499.34;;;20.07;33.32
12203;BME280;6164;42.178;24.622;2023-02-21T10:21:57;100500.41;;;20.06;33.32
12203;BME280;6164;42.178;24.622;2023-02-21T10:24:26;100505.97;;;20.18;33.12
12203;BME280;6164;42.178;24.622;2023-02-21T10:26:56;100501.63;;;20.23;33.75
12203;BME280;6164;42.178;24.622;2023-02-21T10:29:25;100511.31;;;20.44;32.41
12203;BME280;6164;42.178;24.622;2023-02-21T10:31:59;100523.88;;;20.37;32.88
12203;BME280;6164;42.178;24.622;2023-02-21T10:34:29;100526.16;;;20.40;32.45
12203;BME280;6164;42.178;24.622;2023-02-21T10:36:56;100535.47;;;20.31;32.15
12203;BME280;6164;42.178;24.622;2023-02-21T10:39:29;100525.75;;;20.36;32.81
12203;BME280;6164;42.178;24.622;2023-02-21T10:42:01;100535.25;;;20.32;32.17
12203;BME280;6164;42.178;24.622;2023-02-21T10:44:29;100545.97;;;20.45;31.82
12203;BME280;6164;42.178;24.622;2023-02-21T10:46:59;100533.16;;;20.47;32.44
12203;BME280;6164;42.178;24.622;2023-02-21T10:49:31;100531.69;;;20.58;32.12
12203;BME280;6164;42.178;24.622;2023-02-21T10:52:04;100549.00;;;20.75;31.63
12203;BME280;6164;42.178;24.622;2023-02-21T10:54:31;100566.97;;;20.61;31.51
12203;BME280;6164;42.178;24.622;2023-02-21T10:56:58;100571.28;;;20.75;31.88
12203;BME280;6164;42.178;24.622;2023-02-21T10:59:27;100574.78;;;20.76;31.23
12203;BME280;6164;42.178;24.622;2023-02-21T11:01:54;100568.19;;;20.78;31.62
12203;BME280;6164;42.178;24.622;2023-02-21T11:04:23;100584.69;;;20.82;31.27
12203;BME280;6164;42.178;24.622;2023-02-21T11:06:52;100582.41;;;20.92;30.77
12203;BME280;6164;42.178;24.622;2023-02-21T11:09:28;100578.25;;;21.03;31.39
12203;BME280;6164;42.178;24.622;2023-02-21T11:11:58;100580.06;;;21.15;31.01
12203;BME280;6164;42.178;24.622;2023-02-21T11:14:27;100590.75;;;21.28;30.41
12203;BME280;6164;42.178;24.622;2023-02-21T11:19:51;100638.88;;;21.36;29.19
12203;BME280;6164;42.178;24.622;2023-02-21T11:22:19;100649.41;;;21.38;28.97
12203;BME280;6164;42.178;24.622;2023-02-21T11:24:48;100656.63;;;21.37;29.44
12203;BME280;6164;42.178;24.622;2023-02-21T11:27:16;100652.09;;;21.38;28.90
12203;BME280;6164;42.178;24.622;2023-02-21T11:29:45;100668.75;;;21.53;28.37
12203;BME280;6164;42.178;24.622;2023-02-21T11:32:18;100693.97;;;21.52;27.67
12203;BME280;6164;42.178;24.622;2023-02-21T11:34:45;100700.78;;;21.54;28.16
12203;BME280;6164;42.178;24.622;2023-02-21T11:37:13;100722.28;;;21.61;27.83
12203;BME280;6164;42.178;24.622;2023-02-21T11:39:40;100718.69;;;21.80;27.93
12203;BME280;6164;42.178;24.622;2023-02-21T11:42:22;100727.34;;;21.88;27.97
12203;BME280;6164;42.178;24.622;2023-02-21T11:44:54;100732.31;;;21.85;27.51
12203;BME280;6164;42.178;24.622;2023-02-21T11:47:30;100732.88;;;22.00;27.84
12203;BME280;6164;42.178;24.622;2023-02-21T11:50:01;100751.28;;;21.96;27.28
12203;BME280;6164;42.178;24.622;2023-02-21T11:52:30;100763.09;;;21.95;27.03
12203;BME280;6164;42.178;24.622;2023-02-21T11:54:58;100763.09;;;21.95;27.65
12203;BME280;6164;42.178;24.622;2023-02-21T11:57:26;100767.00;;;21.99;27.22
12203;BME280;6164;42.178;24.622;2023-02-21T11:59:58;100777.69;;;22.12;27.05
12203;BME280;6164;42.178;24.622;2023-02-21T12:02:51;100799.22;;;22.12;26.50
12203;BME280;6164;42.178;24.622;2023-02-21T12:05:28;100806.91;;;22.09;26.67
12203;BME280;6164;42.178;24.622;2023-02-21T12:08:01;100809.53;;;22.22;25.95
12203;BME280;6164;42.178;24.622;2023-02-21T12:10:34;100830.09;;;22.48;25.81
12203;BME280;6164;42.178;24.622;2023-02-21T12:13:05;100832.81;;;22.41;26.08
12203;BME280;6164;42.178;24.622;2023-02-21T12:15:37;100844.38;;;22.55;25.67
12203;BME280;6164;42.178;24.622;2023-02-21T12:18:11;100842.25;;;22.63;25.84
12203;BME280;6164;42.178;24.622;2023-02-21T12:20:45;100862.75;;;22.64;25.37
12203;BME280;6164;42.178;24.622;2023-02-21T12:23:17;100874.81;;;22.49;25.46
12203;BME280;6164;42.178;24.622;2023-02-21T12:25:49;100895.47;;;22.61;24.92
12203;BME280;6164;42.178;24.622;2023-02-21T12:28:20;100922.81;;;22.58;24.18
12203;BME280;6164;42.178;24.622;2023-02-21T12:30:56;100928.16;;;22.71;24.39
12203;BME280;6164;42.178;24.622;2023-02-21T12:33:28;100942.03;;;22.68;24.01
12203;BME280;6164;42.178;24.622;2023-02-21T12:36:09;100945.91;;;22.79;24.10
12203;BME280;6164;42.178;24.622;2023-02-21T12:38:42;100975.53;;;22.79;23.71
12203;BME280;6164;42.178;24.622;2023-02-21T12:41:13;101014.28;;;22.78;23.54
12203;BME280;6164;42.178;24.622;2023-02-21T12:43:47;101012.66;;;22.64;23.34
12203;BME280;6164;42.178;24.622;2023-02-21T12:46:18;100994.19;;;22.74;24.18
12203;BME280;6164;42.178;24.622;2023-02-21T12:48:48;101003.44;;;22.91;23.93
12203;BME280;6164;42.178;24.622;2023-02-21T12:51:16;101032.94;;;22.73;23.58
12203;BME280;6164;42.178;24.622;2023-02-21T12:53:46;101034.41;;;22.62;23.45
12203;BME280;6164;42.178;24.622;2023-02-21T12:56:15;101044.19;;;22.57;23.62
12203;BME280;6164;42.178;24.622;2023-02-21T12:58:45;101030.50;;;22.58;24.25
12203;BME280;6164;42.178;24.622;2023-02-21T13:01:14;101031.09;;;22.67;23.91
12203;BME280;6164;42.178;24.622;2023-02-21T13:03:47;101047.88;;;22.62;24.10
12203;BME280;6164;42.178;24.622;2023-02-21T13:06:17;101044.56;;;22.47;23.86
12203;BME280;6164;42.178;24.622;2023-02-21T13:08:48;101049.34;;;22.52;24.22
12203;BME280;6164;42.178;24.622;2023-02-21T13:11:17;101046.88;;;22.44;24.21
12203;BME280;6164;42.178;24.622;2023-02-21T13:13:49;101061.34;;;22.36;24.10
12203;BME280;6164;42.178;24.622;2023-02-21T13:16:16;101037.13;;;22.43;24.52
12203;BME280;6164;42.178;24.622;2023-02-21T13:18:43;101039.81;;;22.36;24.07
12203;BME280;6164;42.178;24.622;2023-02-21T13:21:15;101063.41;;;22.41;24.30
12203;BME280;6164;42.178;24.622;2023-02-21T13:26:39;101043.13;;;22.38;24.38
12203;BME280;6164;42.178;24.622;2023-02-21T13:29:12;101054.94;;;22.50;24.47